Kelly, Georgia
Current Conditions -  °F | °C
As of 12:55 PM on Sunday 21 Dec 2014 (Local Time) from KCVC Reporting Station
Overcast Overcast  
Wind Chill: 50°   Ceiling: 700
Heat Index: 50°   Visibility: 7mi
Dew Point: 46°   Wind: 5mph
Humidity: 87%   Direction: 80°E
Pressure: 30.16"   Gusts: NA
Location:  33.4001°N, 83.6636°W
Report Text: KCVC 211755Z AUTO 08004KT 7SM OVC007 10/08 A3016 RMK AO2
Loading
Personal Weather Stations






























Interactive Weather Map New forecast layout! Learn more

10-Day Weather Forecast

Advertisements
Track Severe Weather on mobile